Fort Madison, Iowa
Current Conditions -  °F | °C
As of 10:15 AM on Saturday 25 Oct 2014 (Local Time) from KFSW Reporting Station
Clear Clear  
Wind Chill: 63°   Ceiling: Unl
Heat Index: 63°   Visibility: 10mi
Dew Point: 61°   Wind: 6mph
Humidity: 94%   Direction: 350°N
Pressure: 30.06"   Gusts: NA
Location:  40.63°N, 91.33°W
Report Text: KFSW 251515Z AUTO 35005KT 10SM CLR 17/16 A3006 RMK AO2
Loading
Personal Weather Stations






























Interactive Weather Map
Tropical Storm Tracking
New forecast layout! Learn more

10-Day Weather Forecast

Advertisements
Track Severe Weather on mobile